Time;durP1;ratioP1;P1;durP2;ratioP2;P2;SDS_P1;SDS_P2;PMS_P1;PMS_P2;Temp;Humidity;BMP_temperature;BMP_pressure;BME280_temperature;BME280_humidity;BME280_pressure;Samples;Min_cycle;Max_cycle;Signal;HPM_P1;HPM_P2
2021/11/15 00:01:13;;;;;;;70.03;31.67;;;8.30;99.90;;;;;;5115721;28;20046;-75
2021/11/15 00:03:41;;;;;;;67.43;31.52;;;8.30;99.90;;;;;;5115973;27;20044;-75
2021/11/15 00:06:07;;;;;;;68.53;32.55;;;8.30;99.90;;;;;;5116245;28;20082;-75
2021/11/15 00:08:33;;;;;;;69.60;30.58;;;8.30;99.90;;;;;;5115873;28;20036;-75
2021/11/15 00:10:59;;;;;;;63.40;31.10;;;8.30;99.90;;;;;;5114865;28;20046;-74
2021/11/15 00:13:24;;;;;;;71.38;33.28;;;8.30;99.90;;;;;;5114962;28;20097;-75
2021/11/15 00:15:50;;;;;;;69.03;31.27;;;8.30;99.90;;;;;;5115451;28;20101;-75
2021/11/15 00:18:16;;;;;;;68.38;31.30;;;8.40;99.90;;;;;;5115563;28;20058;-75
2021/11/15 00:20:42;;;;;;;62.03;28.13;;;8.40;99.90;;;;;;5115243;28;20071;-75
2021/11/15 00:23:08;;;;;;;69.10;29.92;;;8.40;99.90;;;;;;5114315;28;20100;-75
2021/11/15 00:25:34;;;;;;;60.95;26.95;;;8.40;99.90;;;;;;5115415;28;20035;-75
2021/11/15 00:28:00;;;;;;;63.20;28.27;;;8.40;99.90;;;;;;5115440;28;20038;-75
2021/11/15 00:30:26;;;;;;;56.95;27.70;;;8.30;99.90;;;;;;5115063;28;20035;-75
2021/11/15 00:32:54;;;;;;;60.38;29.45;;;8.40;99.90;;;;;;5115255;28;20035;-74
2021/11/15 00:35:20;;;;;;;61.90;28.83;;;8.30;99.90;;;;;;5115346;28;20072;-75
2021/11/15 00:37:45;;;;;;;60.22;26.80;;;8.30;99.90;;;;;;5113806;28;20071;-74
2021/11/15 00:40:16;;;;;;;56.10;27.30;;;8.40;99.90;;;;;;5097578;28;20043;-75
2021/11/15 00:42:43;;;;;;;59.83;28.83;;;8.30;99.90;;;;;;5114189;28;20055;-76
2021/11/15 00:45:10;;;;;;;52.67;25.65;;;8.40;99.90;;;;;;5113755;28;20054;-75
2021/11/15 00:47:37;;;;;;;59.40;27.58;;;8.30;99.90;;;;;;5115263;28;20079;-74
2021/11/15 00:50:05;;;;;;;59.35;27.45;;;8.30;99.90;;;;;;5096385;28;20042;-75
2021/11/15 00:52:30;;;;;;;55.67;25.02;;;8.40;99.90;;;;;;5115359;28;20051;-75
2021/11/15 00:54:56;;;;;;;53.38;25.73;;;8.30;99.90;;;;;;5114774;28;20039;-75
2021/11/15 00:57:22;;;;;;;55.42;24.67;;;8.30;99.90;;;;;;5113885;28;20506;-75
2021/11/15 00:59:48;;;;;;;54.55;24.05;;;8.30;99.90;;;;;;5114830;28;20036;-74
2021/11/15 01:02:15;;;;;;;53.70;24.23;;;8.30;99.90;;;;;;5114543;28;20078;-75
2021/11/15 01:04:40;;;;;;;56.70;24.15;;;8.30;99.90;;;;;;5113438;28;20047;-75
2021/11/15 01:07:06;;;;;;;52.05;24.90;;;8.30;99.90;;;;;;5114814;28;20040;-75
2021/11/15 01:09:31;;;;;;;55.03;24.95;;;8.20;99.90;;;;;;5114213;28;20036;-74
2021/11/15 01:11:57;;;;;;;62.30;27.13;;;8.20;99.90;;;;;;5112722;28;20046;-75
2021/11/15 01:14:23;;;;;;;60.03;26.55;;;8.20;99.90;;;;;;5113378;28;20099;-75
2021/11/15 01:16:50;;;;;;;61.40;25.10;;;8.20;99.90;;;;;;5114558;28;20093;-74
2021/11/15 01:19:16;;;;;;;56.70;27.63;;;8.30;99.90;;;;;;5114167;28;20376;-75
2021/11/15 01:21:43;;;;;;;56.63;26.65;;;8.20;99.90;;;;;;5114635;28;20047;-75
2021/11/15 01:24:09;;;;;;;61.97;28.40;;;8.30;99.90;;;;;;5114707;28;20040;-75
2021/11/15 01:26:36;;;;;;;57.50;27.58;;;8.20;99.90;;;;;;5096020;28;20092;-75
2021/11/15 01:29:01;;;;;;;59.80;28.58;;;8.10;99.90;;;;;;5114066;28;20122;-75
2021/11/15 01:31:27;;;;;;;59.88;28.85;;;8.20;99.90;;;;;;5113035;28;20420;-75
2021/11/15 01:33:52;;;;;;;60.80;28.42;;;8.20;99.90;;;;;;5113072;28;20089;-75
2021/11/15 01:36:18;;;;;;;64.88;28.10;;;8.10;99.90;;;;;;5112998;28;20050;-75
2021/11/15 01:38:44;;;;;;;63.90;28.90;;;8.10;99.90;;;;;;5112704;28;20540;-75
2021/11/15 01:41:09;;;;;;;73.50;31.70;;;8.10;99.90;;;;;;5114168;28;20031;-75
2021/11/15 01:43:36;;;;;;;71.18;31.20;;;8.10;99.90;;;;;;5112745;28;20039;-75
2021/11/15 01:46:03;;;;;;;74.13;33.08;;;8.10;99.90;;;;;;5112779;28;20047;-75
2021/11/15 01:48:28;;;;;;;67.18;30.38;;;8.00;99.90;;;;;;5112782;28;20428;-75
2021/11/15 01:50:54;;;;;;;76.80;31.98;;;8.00;99.90;;;;;;5113816;28;20095;-75
2021/11/15 01:53:20;;;;;;;74.30;32.63;;;7.90;99.90;;;;;;5113841;28;20118;-75
2021/11/15 01:55:47;;;;;;;77.78;30.95;;;7.90;99.90;;;;;;5113852;28;20168;-75
2021/11/15 01:58:14;;;;;;;79.90;31.05;;;7.90;99.90;;;;;;5113831;28;20118;-75
2021/11/15 02:00:42;;;;;;;73.20;30.23;;;7.90;99.90;;;;;;5112551;28;20395;-75
2021/11/15 02:03:09;;;;;;;79.30;32.35;;;8.00;99.90;;;;;;5112483;28;20039;-75
2021/11/15 02:05:35;;;;;;;69.57;29.40;;;7.80;99.90;;;;;;5114343;28;20036;-75
2021/11/15 02:08:01;;;;;;;70.43;29.13;;;7.70;99.90;;;;;;5112567;28;20097;-74
2021/11/15 02:10:27;;;;;;;73.28;29.50;;;7.80;99.90;;;;;;5113401;28;20039;-75
2021/11/15 02:12:53;;;;;;;72.22;30.88;;;7.70;99.90;;;;;;5112690;28;20062;-75
2021/11/15 02:15:19;;;;;;;66.35;28.83;;;7.70;99.90;;;;;;5112452;28;20039;-75
2021/11/15 02:17:47;;;;;;;70.03;28.88;;;7.60;99.90;;;;;;5095508;28;20058;-75
2021/11/15 02:20:22;;;;;;;67.05;26.05;;;7.70;99.90;;;;;;5095175;28;20484;-75
2021/11/15 02:22:50;;;;;;;60.65;27.27;;;7.70;99.90;;;;;;5113120;28;20043;-76
2021/11/15 02:25:19;;;;;;;62.38;26.48;;;7.60;99.90;;;;;;5117649;28;20067;-74
2021/11/15 02:27:46;;;;;;;66.07;26.83;;;7.70;99.90;;;;;;5099591;28;20082;-74
2021/11/15 02:30:21;;;;;;;61.70;25.88;;;7.70;99.90;;;;;;5117443;28;20037;-75
2021/11/15 02:32:47;;;;;;;62.80;25.80;;;7.70;99.90;;;;;;5117836;28;20437;-74
2021/11/15 02:35:15;;;;;;;59.75;26.42;;;7.60;99.90;;;;;;5117921;28;20047;-75
2021/11/15 02:37:42;;;;;;;57.72;25.83;;;7.60;99.90;;;;;;5117461;28;20038;-74
2021/11/15 02:40:11;;;;;;;73.32;26.15;;;7.60;99.90;;;;;;5117372;28;20039;-74
2021/11/15 02:42:37;;;;;;;60.72;26.17;;;7.60;99.90;;;;;;5115978;28;20051;-74
2021/11/15 02:45:09;;;;;;;66.80;28.38;;;7.50;99.90;;;;;;5099439;28;20044;-74
2021/11/15 02:47:35;;;;;;;69.97;28.50;;;7.60;99.90;;;;;;5116730;28;20504;-75
2021/11/15 02:50:02;;;;;;;56.92;24.23;;;7.50;99.90;;;;;;5115655;28;20518;-75
2021/11/15 02:52:28;;;;;;;59.17;26.40;;;7.60;99.90;;;;;;5117344;28;20055;-75
2021/11/15 02:54:58;;;;;;;63.00;25.23;;;7.50;99.90;;;;;;5116133;28;20039;-76
2021/11/15 02:57:24;;;;;;;62.33;25.83;;;7.50;99.90;;;;;;5116032;28;20051;-75
2021/11/15 02:59:50;;;;;;;58.83;26.15;;;7.50;99.90;;;;;;5098817;28;20410;-75
2021/11/15 03:02:16;;;;;;;63.80;25.13;;;7.50;99.90;;;;;;5116920;28;20048;-75
2021/11/15 03:04:44;;;;;;;64.80;26.65;;;7.40;99.90;;;;;;5116939;28;20035;-75
2021/11/15 03:07:09;;;;;;;67.63;27.23;;;7.40;99.90;;;;;;5098590;28;20433;-75
2021/11/15 03:09:38;;;;;;;65.60;27.20;;;7.50;99.90;;;;;;5115715;28;20118;-75
2021/11/15 03:12:03;;;;;;;68.93;28.45;;;7.50;99.90;;;;;;5098650;28;20509;-75
2021/11/15 03:14:29;;;;;;;67.25;30.30;;;7.50;99.90;;;;;;5116930;28;20031;-75
2021/11/15 03:16:55;;;;;;;73.63;31.95;;;7.50;99.90;;;;;;5116896;28;20376;-75
2021/11/15 03:19:21;;;;;;;87.60;34.33;;;7.50;99.90;;;;;;5116558;28;20437;-75
2021/11/15 03:21:46;;;;;;;83.15;36.13;;;7.50;99.90;;;;;;5115177;28;20084;-75
2021/11/15 03:24:12;;;;;;;89.65;39.70;;;7.50;99.90;;;;;;5098899;28;20051;-75
2021/11/15 03:26:37;;;;;;;86.00;36.53;;;7.50;99.90;;;;;;5116739;28;20267;-76
2021/11/15 03:29:03;;;;;;;81.50;35.60;;;7.40;99.90;;;;;;5116485;28;20123;-75
2021/11/15 03:31:32;;;;;;;71.40;32.03;;;7.40;99.90;;;;;;5097976;28;20112;-75
2021/11/15 03:34:18;;;;;;;69.30;31.98;;;7.40;99.90;;;;;;5116253;28;20137;-75
2021/11/15 03:36:44;;;;;;;67.60;29.50;;;7.30;99.90;;;;;;5115993;28;20043;-75
2021/11/15 03:39:11;;;;;;;68.70;29.02;;;7.30;99.90;;;;;;5116317;27;20129;-75
2021/11/15 03:41:39;;;;;;;66.68;28.23;;;7.30;99.90;;;;;;5116349;28;20049;-76
2021/11/15 03:44:06;;;;;;;67.75;29.17;;;7.40;99.90;;;;;;5116867;28;20043;-76
2021/11/15 03:46:32;;;;;;;76.20;31.00;;;7.40;99.90;;;;;;5116278;28;20028;-75
2021/11/15 03:48:59;;;;;;;70.80;30.88;;;7.40;99.90;;;;;;5114825;28;20079;-76
2021/11/15 03:51:25;;;;;;;80.68;29.85;;;7.30;99.90;;;;;;5116213;28;20079;-75
2021/11/15 03:53:51;;;;;;;77.88;30.75;;;7.30;99.90;;;;;;5098160;28;20039;-75
2021/11/15 03:56:23;;;;;;;80.55;31.52;;;7.30;99.90;;;;;;5114706;28;20454;-75
2021/11/15 03:58:49;;;;;;;83.95;33.30;;;7.30;99.90;;;;;;5114577;28;20043;-76
2021/11/15 04:01:14;;;;;;;86.78;33.58;;;7.30;99.90;;;;;;5114584;28;20050;-75
2021/11/15 04:03:43;;;;;;;86.30;33.90;;;7.30;99.90;;;;;;5114762;28;20475;-75
2021/11/15 04:06:21;;;;;;;90.10;34.60;;;7.20;99.90;;;;;;5116153;28;20043;-75
2021/11/15 04:08:47;;;;;;;83.97;33.72;;;7.20;99.90;;;;;;5116042;28;20063;-75
2021/11/15 04:11:13;;;;;;;86.50;34.50;;;7.30;99.90;;;;;;5114671;28;20526;-76
2021/11/15 04:13:41;;;;;;;79.05;32.58;;;7.30;99.90;;;;;;5115836;28;20039;-75
2021/11/15 04:16:13;;;;;;;87.25;35.30;;;7.30;99.90;;;;;;5114492;28;20096;-75
2021/11/15 04:18:46;;;;;;;81.28;31.67;;;7.30;99.90;;;;;;5115208;28;20448;-75
2021/11/15 04:21:14;;;;;;;81.53;32.35;;;7.30;99.90;;;;;;5115624;28;20046;-75
2021/11/15 04:23:40;;;;;;;89.22;33.92;;;7.30;99.90;;;;;;5115494;28;20084;-75
2021/11/15 04:26:08;;;;;;;77.18;32.25;;;7.30;99.90;;;;;;5097194;28;20042;-76
2021/11/15 04:28:33;;;;;;;87.22;35.33;;;7.30;99.90;;;;;;5113954;28;20036;-76
2021/11/15 04:30:59;;;;;;;81.63;32.10;;;7.30;99.90;;;;;;5115189;28;20081;-75
2021/11/15 04:33:25;;;;;;;80.68;34.25;;;7.30;99.90;;;;;;5115109;28;20559;-75
2021/11/15 04:35:52;;;;;;;85.28;33.28;;;7.30;99.90;;;;;;5113989;28;20115;-75
2021/11/15 04:38:19;;;;;;;76.03;30.42;;;7.30;99.90;;;;;;5096869;28;20108;-74
2021/11/15 04:40:44;;;;;;;80.88;31.58;;;7.30;99.90;;;;;;5114850;28;20038;-76
2021/11/15 04:43:12;;;;;;;71.43;27.30;;;7.30;99.90;;;;;;5114758;28;20044;-76
2021/11/15 04:45:38;;;;;;;75.25;30.25;;;7.30;99.90;;;;;;5113437;28;20046;-75
2021/11/15 04:48:05;;;;;;;71.60;28.50;;;7.30;99.90;;;;;;5114882;28;20031;-76
2021/11/15 04:50:31;;;;;;;69.93;27.05;;;7.30;99.90;;;;;;5113424;28;20036;-76
2021/11/15 04:52:58;;;;;;;63.75;26.70;;;7.30;99.90;;;;;;5114147;28;20491;-75
2021/11/15 04:55:24;;;;;;;65.45;24.58;;;7.30;99.90;;;;;;5113673;28;20043;-75
2021/11/15 04:57:51;;;;;;;66.75;24.98;;;7.30;99.90;;;;;;5115144;28;20039;-75
2021/11/15 05:00:20;;;;;;;61.60;24.10;;;7.30;99.90;;;;;;5114772;28;20075;-75
2021/11/15 05:02:48;;;;;;;63.92;24.75;;;7.30;99.90;;;;;;5096707;28;20044;-76
2021/11/15 05:05:15;;;;;;;66.75;25.70;;;7.30;99.90;;;;;;5114835;28;20039;-76
2021/11/15 05:07:41;;;;;;;64.38;26.23;;;7.30;99.90;;;;;;5113372;28;20379;-74
2021/11/15 05:10:08;;;;;;;63.63;24.23;;;7.30;99.90;;;;;;5114221;28;20402;-74
2021/11/15 05:12:37;;;;;;;62.95;24.00;;;7.30;99.90;;;;;;5113378;28;20052;-75
2021/11/15 05:15:09;;;;;;;60.20;23.77;;;7.20;99.90;;;;;;5113089;28;20051;-74
2021/11/15 05:17:35;;;;;;;53.60;23.08;;;7.30;99.90;;;;;;5113027;28;20048;-75
2021/11/15 05:20:01;;;;;;;52.53;22.55;;;7.30;99.90;;;;;;5114028;28;20035;-75
2021/11/15 05:22:26;;;;;;;65.40;23.95;;;7.20;99.90;;;;;;5112991;28;20053;-75
2021/11/15 05:24:52;;;;;;;54.15;21.85;;;7.30;99.90;;;;;;5114281;28;20070;-75
2021/11/15 05:27:18;;;;;;;50.15;20.60;;;7.20;99.90;;;;;;5114145;28;20525;-75
2021/11/15 05:29:44;;;;;;;54.30;21.88;;;7.20;99.90;;;;;;5112714;28;20522;-74
2021/11/15 05:32:09;;;;;;;53.67;20.73;;;7.30;99.90;;;;;;5114011;28;20040;-75
2021/11/15 05:34:35;;;;;;;51.88;21.52;;;7.20;99.90;;;;;;5114241;28;20046;-75
2021/11/15 05:37:01;;;;;;;59.97;21.20;;;7.20;99.90;;;;;;5114160;28;20071;-75
2021/11/15 05:39:27;;;;;;;58.83;23.17;;;7.20;99.90;;;;;;5113918;28;20058;-75
2021/11/15 05:41:52;;;;;;;58.40;22.58;;;7.10;99.90;;;;;;5112573;28;20122;-75
2021/11/15 05:44:18;;;;;;;53.35;21.08;;;7.10;99.90;;;;;;5112621;28;20096;-74
2021/11/15 05:46:44;;;;;;;63.58;22.98;;;7.10;99.90;;;;;;5114103;28;20034;-74
2021/11/15 05:49:10;;;;;;;61.35;22.55;;;7.10;99.90;;;;;;5113982;28;20716;-74
2021/11/15 05:51:36;;;;;;;54.42;22.15;;;7.10;99.90;;;;;;5095570;28;20039;-75
2021/11/15 05:54:01;;;;;;;61.00;22.98;;;7.10;99.90;;;;;;5114119;28;20041;-74
2021/11/15 05:56:27;;;;;;;51.67;23.10;;;7.10;99.90;;;;;;5114204;28;20119;-75
2021/11/15 05:58:53;;;;;;;65.13;23.00;;;7.20;99.90;;;;;;5113452;28;20044;-75
2021/11/15 06:01:18;;;;;;;52.70;21.60;;;7.10;99.90;;;;;;5113870;28;20441;-75
2021/11/15 06:03:44;;;;;;;55.67;21.65;;;7.10;99.90;;;;;;5112185;28;20484;-74
2021/11/15 06:06:10;;;;;;;51.28;19.73;;;7.10;99.90;;;;;;5114109;28;20035;-74
2021/11/15 06:08:37;;;;;;;53.83;19.20;;;7.10;99.90;;;;;;5112280;28;20138;-75
2021/11/15 06:11:03;;;;;;;56.67;21.30;;;7.10;99.90;;;;;;5113964;28;20039;-75
2021/11/15 06:13:29;;;;;;;49.90;20.02;;;7.10;99.90;;;;;;5113848;28;20044;-74
2021/11/15 06:15:55;;;;;;;54.58;19.85;;;7.10;99.90;;;;;;5095398;28;20052;-75
2021/11/15 06:18:21;;;;;;;58.13;20.13;;;7.00;99.90;;;;;;5113688;28;20042;-75
2021/11/15 06:20:47;;;;;;;54.05;21.73;;;7.00;99.90;;;;;;5113232;28;20047;-75
2021/11/15 06:23:13;;;;;;;56.28;20.50;;;7.00;99.90;;;;;;5113797;28;20044;-75
2021/11/15 06:25:39;;;;;;;60.88;22.30;;;7.00;99.90;;;;;;5113603;28;20043;-75
2021/11/15 06:28:05;;;;;;;59.92;21.80;;;7.00;99.90;;;;;;5113548;28;20035;-74
2021/11/15 06:30:31;;;;;;;55.20;21.40;;;7.10;99.90;;;;;;5113214;28;20145;-74
2021/11/15 06:32:57;;;;;;;62.58;21.85;;;7.10;99.90;;;;;;5112108;28;20043;-73
2021/11/15 06:35:26;;;;;;;58.90;21.20;;;7.00;99.90;;;;;;5113573;28;20047;-71
2021/11/15 06:37:51;;;;;;;55.72;21.25;;;7.00;99.90;;;;;;5113656;28;20047;-72
2021/11/15 06:40:18;;;;;;;63.60;24.48;;;7.00;99.90;;;;;;5113048;28;20061;-72
2021/11/15 06:42:44;;;;;;;63.97;23.30;;;6.90;99.90;;;;;;5113052;28;20051;-72
2021/11/15 06:45:10;;;;;;;58.30;23.40;;;7.00;99.90;;;;;;5113538;28;20027;-72
2021/11/15 06:47:37;;;;;;;66.20;24.80;;;7.00;99.90;;;;;;5113544;28;20039;-72
2021/11/15 06:50:05;;;;;;;72.97;25.35;;;6.90;99.90;;;;;;5113043;28;20054;-73
2021/11/15 06:52:30;;;;;;;70.97;25.00;;;6.90;99.90;;;;;;5113176;28;20039;-73
2021/11/15 06:54:57;;;;;;;62.35;23.90;;;6.90;99.90;;;;;;5111919;28;20048;-72
2021/11/15 06:57:24;;;;;;;61.88;24.88;;;6.90;99.90;;;;;;5095026;28;20050;-72
2021/11/15 06:59:50;;;;;;;62.78;23.17;;;7.00;99.90;;;;;;5112846;28;20040;-73
2021/11/15 07:02:15;;;;;;;70.10;25.02;;;6.90;99.90;;;;;;5113129;28;20055;-73
2021/11/15 07:04:41;;;;;;;62.83;22.20;;;7.00;99.90;;;;;;5094933;28;20042;-72
2021/11/15 07:07:07;;;;;;;56.30;23.98;;;6.90;99.90;;;;;;5113249;28;20031;-72
2021/11/15 07:09:32;;;;;;;76.35;28.15;;;6.90;99.90;;;;;;5096635;28;20043;-72
2021/11/15 07:11:58;;;;;;;70.75;26.52;;;6.90;99.90;;;;;;5115486;28;20043;-72
2021/11/15 07:14:23;;;;;;;57.95;24.05;;;6.90;99.90;;;;;;5116971;28;20135;-73
2021/11/15 07:16:49;;;;;;;61.95;22.40;;;7.00;99.90;;;;;;5116634;28;20036;-72
2021/11/15 07:19:15;;;;;;;57.47;22.40;;;7.00;99.90;;;;;;5114971;28;20114;-72
2021/11/15 07:21:40;;;;;;;62.88;23.50;;;7.00;99.90;;;;;;5115173;28;20082;-72
2021/11/15 07:24:06;;;;;;;61.17;20.95;;;7.00;99.90;;;;;;5116771;28;20042;-72
2021/11/15 07:26:32;;;;;;;53.90;20.00;;;7.00;99.90;;;;;;5116478;28;20387;-73
2021/11/15 07:28:58;;;;;;;52.10;19.75;;;7.00;99.90;;;;;;5116276;28;20039;-72
2021/11/15 07:31:25;;;;;;;51.60;20.77;;;7.00;99.90;;;;;;5115713;28;20487;-72
2021/11/15 07:33:51;;;;;;;52.72;21.67;;;7.00;99.90;;;;;;5115050;28;20046;-72
2021/11/15 07:36:16;;;;;;;44.22;17.98;;;7.00;99.90;;;;;;5098291;28;20035;-73
2021/11/15 07:38:42;;;;;;;48.95;19.58;;;6.90;99.90;;;;;;5116284;28;20035;-73
2021/11/15 07:41:08;;;;;;;44.85;18.55;;;6.90;99.90;;;;;;5115414;28;20031;-72
2021/11/15 07:43:33;;;;;;;52.92;18.08;;;6.90;99.90;;;;;;5116093;28;20518;-72
2021/11/15 07:46:00;;;;;;;45.78;18.20;;;6.90;99.90;;;;;;5116496;28;20032;-71
2021/11/15 07:48:27;;;;;;;39.15;16.40;;;7.00;99.90;;;;;;5116091;28;20361;-73
2021/11/15 07:50:52;;;;;;;44.70;17.02;;;6.80;99.90;;;;;;5115223;28;20043;-71
2021/11/15 07:53:18;;;;;;;42.28;15.60;;;6.90;99.90;;;;;;5116063;28;20538;-72
2021/11/15 07:55:44;;;;;;;41.90;17.05;;;6.90;99.90;;;;;;5116127;28;20031;-71
2021/11/15 07:58:11;;;;;;;36.38;15.38;;;6.80;99.90;;;;;;5116006;28;20113;-72
2021/11/15 08:00:38;;;;;;;42.28;16.85;;;6.90;99.90;;;;;;5115905;28;20071;-71
2021/11/15 08:03:04;;;;;;;41.50;17.00;;;6.90;99.90;;;;;;5114379;28;20048;-71
2021/11/15 08:05:30;;;;;;;45.25;17.60;;;6.90;99.90;;;;;;5114568;28;20071;-71
2021/11/15 08:07:56;;;;;;;43.55;16.67;;;6.90;99.90;;;;;;5114341;28;20063;-71
2021/11/15 08:10:22;;;;;;;45.03;17.63;;;6.90;99.90;;;;;;5115398;28;20035;-72
2021/11/15 08:12:51;;;;;;;34.60;14.40;;;6.90;99.90;;;;;;5115619;28;20113;-72
2021/11/15 08:15:19;;;;;;;37.80;14.55;;;6.90;99.90;;;;;;5115848;28;20043;-71
2021/11/15 08:17:47;;;;;;;36.85;15.57;;;6.90;99.90;;;;;;5115569;28;20035;-72
2021/11/15 08:20:20;;;;;;;43.17;16.98;;;6.90;99.90;;;;;;5114095;28;20514;-71
2021/11/15 08:22:49;;;;;;;42.17;16.77;;;6.90;99.90;;;;;;5115506;28;20078;-72
2021/11/15 08:25:50;;;;;;;35.47;15.13;;;6.80;99.90;;;;;;5115562;28;20353;-71
2021/11/15 08:28:16;;;;;;;41.60;16.73;;;6.90;99.90;;;;;;5097177;28;20044;-71
2021/11/15 08:30:42;;;;;;;43.53;14.68;;;6.90;99.90;;;;;;5115029;28;20038;-71
2021/11/15 08:33:08;;;;;;;37.58;14.88;;;6.90;99.90;;;;;;5115052;28;20043;-72
2021/11/15 08:35:34;;;;;;;29.38;11.95;;;6.90;99.90;;;;;;5113891;28;20048;-72
2021/11/15 08:38:15;;;;;;;37.95;13.20;;;6.90;99.90;;;;;;5114011;28;20054;-71
2021/11/15 08:40:45;;;;;;;36.03;14.48;;;6.90;99.90;;;;;;5113868;28;20043;-71
2021/11/15 08:43:14;;;;;;;32.85;11.88;;;6.90;99.90;;;;;;5115586;28;20044;-72
2021/11/15 08:45:40;;;;;;;33.72;12.95;;;6.90;99.90;;;;;;5115631;28;20036;-72
2021/11/15 08:48:06;;;;;;;33.55;13.98;;;6.90;99.90;;;;;;5113798;28;20039;-72
2021/11/15 08:50:32;;;;;;;24.83;12.23;;;6.80;99.90;;;;;;5114684;28;20032;-71
2021/11/15 08:52:58;;;;;;;30.73;13.38;;;6.90;99.90;;;;;;5114722;28;20035;-72
2021/11/15 08:55:25;;;;;;;29.98;12.88;;;6.90;99.90;;;;;;5113846;28;20044;-72
2021/11/15 08:57:52;;;;;;;29.45;12.75;;;6.80;99.90;;;;;;5115320;28;20043;-72
2021/11/15 09:00:18;;;;;;;25.15;10.98;;;6.80;99.90;;;;;;5114523;28;20034;-71
2021/11/15 09:02:44;;;;;;;24.70;11.38;;;6.90;99.90;;;;;;5113163;28;20043;-72
2021/11/15 09:05:10;;;;;;;25.10;11.48;;;6.90;99.90;;;;;;5114858;28;20036;-72
2021/11/15 09:07:37;;;;;;;28.13;11.40;;;6.80;99.90;;;;;;5113312;28;20047;-71
2021/11/15 09:10:08;;;;;;;27.58;10.82;;;6.90;99.90;;;;;;5114540;28;20472;-71
2021/11/15 09:12:35;;;;;;;24.50;10.27;;;6.90;99.90;;;;;;5113306;28;20047;-70
2021/11/15 09:15:02;;;;;;;28.17;11.13;;;6.90;99.90;;;;;;5113726;28;20051;-71
2021/11/15 09:17:27;;;;;;;29.33;12.93;;;6.90;99.90;;;;;;5096624;28;20126;-73
2021/11/15 09:19:53;;;;;;;31.45;12.27;;;6.90;99.90;;;;;;5114035;28;20506;-71
2021/11/15 09:22:19;;;;;;;30.30;11.88;;;6.80;99.90;;;;;;5114161;28;20047;-72
2021/11/15 09:24:45;;;;;;;25.75;11.80;;;6.90;99.90;;;;;;5096190;28;20096;-73
2021/11/15 09:27:15;;;;;;;27.20;11.57;;;6.90;99.90;;;;;;5113560;28;20551;-72
2021/11/15 09:29:49;;;;;;;32.80;12.02;;;6.90;99.90;;;;;;5114331;28;20484;-72
2021/11/15 09:32:16;;;;;;;33.30;12.45;;;6.90;99.90;;;;;;5114049;28;20036;-72
2021/11/15 09:34:43;;;;;;;28.55;11.85;;;7.00;99.90;;;;;;5114454;28;20396;-72
2021/11/15 09:37:10;;;;;;;24.52;11.20;;;7.00;99.90;;;;;;5114485;28;20059;-72
2021/11/15 09:39:37;;;;;;;20.92;10.10;;;7.00;99.90;;;;;;5113635;28;20515;-72
2021/11/15 09:42:04;;;;;;;28.00;11.10;;;7.00;99.90;;;;;;5113867;28;20055;-72
2021/11/15 09:44:29;;;;;;;22.40;10.02;;;7.10;99.90;;;;;;5114115;28;20387;-71
2021/11/15 09:46:55;;;;;;;24.48;10.95;;;7.10;99.90;;;;;;5113756;28;20028;-72
2021/11/15 09:49:21;;;;;;;29.13;11.30;;;7.00;99.90;;;;;;5113732;28;20039;-72
2021/11/15 09:51:48;;;;;;;28.52;11.95;;;7.00;99.90;;;;;;5112671;28;20031;-72
2021/11/15 09:54:15;;;;;;;23.67;10.88;;;6.90;99.90;;;;;;5113906;28;20043;-72
2021/11/15 09:56:42;;;;;;;23.70;11.82;;;6.90;99.90;;;;;;5113781;28;20131;-72
2021/11/15 09:59:12;;;;;;;27.83;11.25;;;6.90;99.90;;;;;;5113948;28;20081;-72
2021/11/15 10:01:40;;;;;;;27.20;12.10;;;6.90;99.90;;;;;;5112342;28;20043;-72
2021/11/15 10:04:05;;;;;;;33.45;12.65;;;6.90;99.90;;;;;;5113820;28;20536;-72
2021/11/15 10:06:31;;;;;;;35.25;14.25;;;7.00;99.90;;;;;;5112852;28;20040;-72
2021/11/15 10:09:02;;;;;;;41.00;16.70;;;7.00;99.90;;;;;;5112062;28;20036;-71
2021/11/15 10:12:01;;;;;;;43.10;18.17;;;7.00;99.90;;;;;;5113082;28;20043;-71
2021/11/15 10:14:27;;;;;;;44.45;18.20;;;6.90;99.90;;;;;;5093389;28;20047;-72
2021/11/15 10:16:59;;;;;;;49.08;18.38;;;6.90;99.90;;;;;;5113915;28;20038;-72
2021/11/15 10:19:26;;;;;;;46.05;17.30;;;6.90;99.90;;;;;;5113177;28;20031;-72
2021/11/15 10:21:55;;;;;;;42.00;17.45;;;6.90;99.90;;;;;;5113425;28;20036;-72
2021/11/15 10:24:31;;;;;;;32.63;14.48;;;6.80;99.90;;;;;;5112401;28;20031;-72
2021/11/15 10:27:00;;;;;;;38.08;14.15;;;6.80;99.90;;;;;;5112795;28;20039;-72
2021/11/15 10:29:35;;;;;;;32.20;14.18;;;6.80;99.90;;;;;;5113324;28;20081;-72
2021/11/15 10:32:13;;;;;;;33.63;14.00;;;6.70;99.90;;;;;;5112285;28;20074;-72
2021/11/15 10:34:42;;;;;;;32.65;14.98;;;6.70;99.90;;;;;;5113555;28;20052;-72
2021/11/15 10:37:19;;;;;;;44.90;18.48;;;6.80;99.90;;;;;;5112460;28;20051;-71
2021/11/15 10:39:57;;;;;;;49.22;19.80;;;6.70;99.90;;;;;;5111859;28;20046;-72
2021/11/15 10:42:45;;;;;;;46.72;20.33;;;6.70;99.90;;;;;;5095919;28;20043;-72
2021/11/15 10:45:13;;;;;;;55.92;22.60;;;6.70;99.90;;;;;;5116764;28;20031;-72
2021/11/15 10:47:40;;;;;;;79.22;27.23;;;6.80;99.90;;;;;;5117737;28;20036;-72
2021/11/15 10:50:18;;;;;;;74.95;30.90;;;6.70;99.90;;;;;;5117433;28;20036;-72
2021/11/15 10:52:57;;;;;;;76.43;30.75;;;6.70;99.90;;;;;;5116099;28;20145;-72
2021/11/15 10:55:24;;;;;;;75.25;30.48;;;6.70;99.90;;;;;;5117405;28;20048;-72
2021/11/15 10:57:50;;;;;;;78.57;34.78;;;6.80;99.90;;;;;;5117295;28;20032;-72
2021/11/15 11:00:25;;;;;;;71.97;32.65;;;6.70;99.90;;;;;;5117239;27;20039;-72
2021/11/15 11:03:20;;;;;;;82.07;32.10;;;6.80;99.90;;;;;;5116897;28;20040;-72
2021/11/15 11:05:48;;;;;;;87.90;34.58;;;6.70;99.90;;;;;;5114564;28;20062;-72
2021/11/15 11:08:18;;;;;;;79.05;31.17;;;6.70;99.90;;;;;;5117147;28;20561;-72
2021/11/15 11:10:53;;;;;;;77.00;31.45;;;6.70;99.90;;;;;;5115482;28;20043;-72
2021/11/15 11:13:20;;;;;;;76.03;32.28;;;6.70;99.90;;;;;;5115409;28;20084;-69
2021/11/15 11:15:48;;;;;;;83.35;33.85;;;6.70;99.90;;;;;;5115969;28;20087;-72
2021/11/15 11:26:33;;;;;;;77.90;35.17;;;6.70;99.90;;;;;;5115688;28;20103;-71
2021/11/15 11:29:10;;;;;;;81.30;34.28;;;6.80;99.90;;;;;;5114886;28;20051;-72
2021/11/15 11:31:41;;;;;;;88.70;35.20;;;6.70;99.90;;;;;;5115677;28;20106;-70
2021/11/15 11:34:07;;;;;;;88.28;37.22;;;6.70;99.90;;;;;;5098548;28;20058;-72
2021/11/15 11:36:33;;;;;;;87.97;39.58;;;6.70;99.90;;;;;;5115670;28;20480;-71
2021/11/15 11:39:00;;;;;;;86.90;36.35;;;6.70;99.90;;;;;;5114841;28;20043;-72
2021/11/15 11:41:25;;;;;;;86.15;36.45;;;6.70;99.90;;;;;;5114956;28;20043;-71
2021/11/15 11:43:53;;;;;;;86.20;34.95;;;6.70;99.90;;;;;;5116214;28;20042;-71
2021/11/15 11:46:23;;;;;;;91.53;37.17;;;6.80;99.90;;;;;;5115387;28;20140;-71
2021/11/15 11:48:53;;;;;;;93.57;39.40;;;6.80;99.90;;;;;;5101557;28;20059;-70
2021/11/15 11:51:22;;;;;;;83.50;34.75;;;6.70;99.90;;;;;;5094633;28;20048;-71
2021/11/15 11:53:55;;;;;;;85.00;36.17;;;6.70;99.90;;;;;;5095547;28;20079;-71
2021/11/15 11:56:21;;;;;;;89.55;34.65;;;6.80;99.90;;;;;;5095208;28;20052;-68
2021/11/15 11:58:51;;;;;;;82.78;33.58;;;6.80;99.90;;;;;;5094916;28;20050;-68
2021/11/15 12:01:21;;;;;;;89.57;35.25;;;7.00;99.90;;;;;;5077450;28;20040;-69
2021/11/15 12:04:10;;;;;;;77.88;33.53;;;6.80;99.90;;;;;;5094084;28;20465;-72
2021/11/15 12:06:36;;;;;;;77.00;33.63;;;6.90;99.90;;;;;;5095397;28;20042;-69
2021/11/15 12:09:04;;;;;;;83.25;33.10;;;6.90;99.90;;;;;;5095148;28;20048;-69
2021/11/15 12:11:32;;;;;;;79.00;32.33;;;7.00;99.90;;;;;;5095468;28;20068;-69
2021/11/15 12:13:59;;;;;;;76.07;30.63;;;6.80;99.90;;;;;;5095334;28;20044;-69
2021/11/15 12:17:04;;;;;;;76.78;30.17;;;7.00;99.90;;;;;;5095320;28;20040;-68
2021/11/15 12:19:48;;;;;;;80.35;31.20;;;7.00;99.90;;;;;;5094715;28;20046;-69
2021/11/15 12:22:19;;;;;;;76.78;32.95;;;7.10;99.90;;;;;;5093944;28;20083;-69
2021/11/15 12:25:03;;;;;;;72.05;29.92;;;7.10;99.90;;;;;;5095049;28;20055;-69
2021/11/15 12:27:42;;;;;;;70.78;29.08;;;7.10;99.90;;;;;;5095215;28;20039;-69
2021/11/15 12:30:17;;;;;;;78.88;31.15;;;7.10;99.90;;;;;;5094634;28;20602;-69
2021/11/15 12:33:09;;;;;;;83.05;33.47;;;7.10;99.90;;;;;;5094184;28;20052;-69
2021/11/15 12:35:52;;;;;;;83.00;33.80;;;7.10;99.90;;;;;;5095126;28;20047;-69
2021/11/15 12:38:41;;;;;;;73.70;30.50;;;7.10;99.90;;;;;;5076995;28;20052;-69
2021/11/15 12:41:23;;;;;;;75.85;31.63;;;7.00;99.90;;;;;;5094852;28;20101;-69
2021/11/15 12:44:12;;;;;;;70.75;30.40;;;7.00;99.90;;;;;;5094466;28;20050;-68
2021/11/15 12:46:45;;;;;;;74.78;29.65;;;7.10;99.90;;;;;;5093625;28;20460;-69
2021/11/15 12:49:21;;;;;;;73.30;31.77;;;7.10;99.90;;;;;;5094223;28;20051;-69